createdAt,value
2023-02-28T00:01:10.897Z,79.35
2023-02-28T00:03:38.781Z,79.57
2023-02-28T00:06:07.936Z,79.13
2023-02-28T00:08:35.652Z,79.52
2023-02-28T00:11:04.476Z,79.86
2023-02-28T00:13:32.144Z,79.50
2023-02-28T00:16:03.701Z,79.69
2023-02-28T00:18:32.710Z,79.96
2023-02-28T00:21:00.609Z,80.63
2023-02-28T00:23:28.783Z,80.85
2023-02-28T00:25:56.540Z,80.50
2023-02-28T00:28:24.436Z,80.72
2023-02-28T00:30:52.105Z,80.91
2023-02-28T00:33:19.780Z,80.16
2023-02-28T00:35:49.659Z,80.16
2023-02-28T00:38:17.461Z,80.59
2023-02-28T00:40:46.777Z,80.59
2023-02-28T00:43:14.473Z,80.69
2023-02-28T00:45:42.178Z,80.95
2023-02-28T00:48:09.713Z,81.00
2023-02-28T00:50:37.382Z,81.49
2023-02-28T00:53:06.331Z,82.06
2023-02-28T00:55:33.906Z,81.99
2023-02-28T00:58:01.470Z,81.48
2023-02-28T01:00:29.047Z,81.44
2023-02-28T01:02:56.611Z,81.78
2023-02-28T01:05:24.815Z,81.60
2023-02-28T01:07:52.376Z,81.28
2023-02-28T01:10:21.618Z,81.09
2023-02-28T01:12:49.185Z,81.42
2023-02-28T01:15:16.928Z,82.15
2023-02-28T01:17:44.477Z,81.30
2023-02-28T01:20:12.991Z,81.62
2023-02-28T01:22:41.004Z,82.14
2023-02-28T01:25:09.666Z,81.93
2023-02-28T01:27:40.395Z,82.27
2023-02-28T01:30:09.692Z,83.29
2023-02-28T01:32:37.653Z,83.13
2023-02-28T01:35:05.711Z,83.42
2023-02-28T01:37:33.328Z,83.36
2023-02-28T01:40:00.849Z,84.18
2023-02-28T01:42:28.580Z,83.78
2023-02-28T01:45:23.518Z,83.93
2023-02-28T01:47:52.900Z,84.66
2023-02-28T01:50:23.005Z,84.48
2023-02-28T01:52:51.547Z,84.33
2023-02-28T01:55:20.757Z,84.48
2023-02-28T01:57:54.612Z,85.00
2023-02-28T02:00:27.763Z,85.51
2023-02-28T02:02:56.862Z,85.88
2023-02-28T02:05:26.518Z,86.83
2023-02-28T02:07:56.923Z,86.61
2023-02-28T02:10:31.569Z,86.85
2023-02-28T02:13:10.799Z,87.58
2023-02-28T02:15:43.612Z,88.72
2023-02-28T02:18:17.686Z,88.68
2023-02-28T02:21:16.065Z,88.83
2023-02-28T02:24:10.137Z,89.94
2023-02-28T02:26:55.598Z,90.23
2023-02-28T02:29:48.785Z,90.67
2023-02-28T02:32:34.080Z,90.94
2023-02-28T02:35:11.327Z,91.10
2023-02-28T02:37:42.480Z,91.91
2023-02-28T02:40:14.967Z,92.04
2023-02-28T02:42:47.559Z,91.49
2023-02-28T02:45:18.121Z,92.19
2023-02-28T02:47:46.287Z,92.59
2023-02-28T02:50:19.877Z,93.17
2023-02-28T02:52:53.139Z,92.89
2023-02-28T02:55:22.632Z,92.98
2023-02-28T02:57:53.219Z,93.03
2023-02-28T03:00:24.311Z,93.37
2023-02-28T03:02:52.642Z,93.12
2023-02-28T03:05:25.621Z,93.72
2023-02-28T03:07:53.243Z,93.37
2023-02-28T03:10:36.926Z,93.27
2023-02-28T03:13:30.817Z,93.49
2023-02-28T03:16:08.219Z,93.67
2023-02-28T03:18:42.648Z,93.88
2023-02-28T03:21:18.403Z,93.62
2023-02-28T03:23:51.770Z,93.62
2023-02-28T03:26:21.585Z,94.44
2023-02-28T03:28:54.409Z,94.16
2023-02-28T03:31:24.727Z,94.62
2023-02-28T03:33:56.528Z,94.18
2023-02-28T03:36:28.041Z,94.14
2023-02-28T03:38:59.636Z,94.02
2023-02-28T03:41:30.603Z,94.07
2023-02-28T03:44:00.622Z,94.01
2023-02-28T03:46:31.027Z,93.75
2023-02-28T03:49:03.045Z,93.44
2023-02-28T03:51:33.173Z,93.53
2023-02-28T03:54:06.143Z,93.70
2023-02-28T03:56:36.861Z,93.24
2023-02-28T03:59:07.337Z,93.05
2023-02-28T04:01:37.696Z,92.33
2023-02-28T04:04:05.765Z,93.30
2023-02-28T04:06:36.144Z,92.55
2023-02-28T04:09:04.896Z,92.83
2023-02-28T04:11:35.698Z,92.40
2023-02-28T04:14:04.183Z,92.47
2023-02-28T04:16:35.510Z,91.66
2023-02-28T04:19:04.425Z,92.24
2023-02-28T04:21:32.799Z,92.07
2023-02-28T04:24:02.434Z,92.31
2023-02-28T04:26:31.739Z,92.18
2023-02-28T04:28:59.359Z,91.34
2023-02-28T04:31:27.203Z,91.38
2023-02-28T04:33:54.986Z,91.60
2023-02-28T04:36:24.595Z,91.53
2023-02-28T04:38:52.455Z,91.61
2023-02-28T04:41:21.641Z,91.89
2023-02-28T04:43:49.406Z,91.37
2023-02-28T04:46:16.991Z,91.23
2023-02-28T04:48:45.468Z,91.01
2023-02-28T04:51:15.406Z,91.22
2023-02-28T04:53:43.867Z,90.95
2023-02-28T04:56:13.982Z,91.21
2023-02-28T04:58:43.674Z,90.84
2023-02-28T05:01:20.014Z,90.69
2023-02-28T05:03:47.580Z,90.46
2023-02-28T05:06:15.906Z,90.48
2023-02-28T05:08:43.519Z,90.84
2023-02-28T05:11:16.572Z,90.25
2023-02-28T05:13:46.045Z,90.54
2023-02-28T05:16:13.678Z,90.27
2023-02-28T05:18:41.697Z,90.09
2023-02-28T05:21:25.775Z,89.64
2023-02-28T05:23:53.544Z,89.28
2023-02-28T05:26:21.261Z,89.29
2023-02-28T05:28:50.173Z,89.57
2023-02-28T05:31:17.773Z,88.69
2023-02-28T05:33:45.412Z,89.07
2023-02-28T05:36:13.016Z,89.02
2023-02-28T05:38:40.621Z,89.36
2023-02-28T05:41:09.139Z,88.64
2023-02-28T05:43:37.944Z,89.33
2023-02-28T05:46:07.873Z,88.89
2023-02-28T05:48:36.478Z,88.51
2023-02-28T05:51:04.513Z,88.57
2023-02-28T05:53:32.769Z,88.69
2023-02-28T05:56:00.600Z,88.80
2023-02-28T05:58:31.416Z,88.60
2023-02-28T06:00:59.820Z,88.48
2023-02-28T06:03:29.367Z,88.17
2023-02-28T06:05:56.952Z,88.35
2023-02-28T06:08:24.573Z,88.67
2023-02-28T06:10:52.316Z,88.59
2023-02-28T06:13:20.190Z,88.76
2023-02-28T06:15:47.765Z,88.65
2023-02-28T06:18:15.425Z,88.53
2023-02-28T06:20:44.426Z,88.27
2023-02-28T06:23:12.325Z,88.25
2023-02-28T06:25:39.927Z,88.16
2023-02-28T06:28:07.561Z,88.24
2023-02-28T06:30:35.174Z,88.42
2023-02-28T06:33:02.821Z,88.38
2023-02-28T06:35:30.490Z,88.42
2023-02-28T06:37:59.553Z,88.18
2023-02-28T06:40:27.565Z,87.49
2023-02-28T06:42:55.142Z,87.37
2023-02-28T06:45:22.750Z,86.63
2023-02-28T06:47:53.035Z,86.78
2023-02-28T06:50:21.387Z,86.75
2023-02-28T06:52:49.162Z,86.61
2023-02-28T06:55:19.031Z,86.78
2023-02-28T06:57:46.607Z,86.66
2023-02-28T07:00:15.710Z,86.92
2023-02-28T07:02:43.290Z,86.74
2023-02-28T07:05:10.964Z,86.91
2023-02-28T07:07:41.460Z,86.30
2023-02-28T07:10:10.058Z,86.35
2023-02-28T07:12:39.734Z,85.58
2023-02-28T07:15:08.603Z,85.23
2023-02-28T07:17:36.210Z,84.67
2023-02-28T07:20:05.522Z,84.34
2023-02-28T07:22:33.182Z,84.32
2023-02-28T07:25:00.771Z,83.54
2023-02-28T07:27:28.494Z,82.40
2023-02-28T07:29:57.646Z,82.06
2023-02-28T07:32:25.463Z,82.11
2023-02-28T07:34:53.403Z,80.92
2023-02-28T07:37:21.108Z,80.29
2023-02-28T07:39:48.826Z,80.42
2023-02-28T07:42:16.501Z,79.70
2023-02-28T07:44:44.159Z,78.97
2023-02-28T07:47:13.168Z,78.69
2023-02-28T07:49:40.957Z,79.42
2023-02-28T07:52:11.363Z,77.53
2023-02-28T07:54:39.860Z,78.07
2023-02-28T07:57:07.579Z,76.01
2023-02-28T07:59:35.265Z,76.31
2023-02-28T08:02:03.049Z,75.50
2023-02-28T08:04:33.844Z,75.88
2023-02-28T08:07:01.558Z,75.32
2023-02-28T08:09:30.790Z,75.35
2023-02-28T08:11:58.562Z,74.19
2023-02-28T08:14:26.391Z,74.42
2023-02-28T08:16:54.065Z,73.75
2023-02-28T08:19:21.758Z,73.73
2023-02-28T08:21:50.748Z,73.45
2023-02-28T08:24:18.358Z,73.55
2023-02-28T08:26:46.100Z,73.34
2023-02-28T08:29:13.726Z,73.31
2023-02-28T08:31:41.350Z,73.55
2023-02-28T08:34:09.279Z,74.06
2023-02-28T08:36:36.995Z,73.66
2023-02-28T08:39:06.243Z,73.65
2023-02-28T08:41:34.451Z,74.08
2023-02-28T08:44:02.403Z,74.22
2023-02-28T08:46:30.037Z,73.08
2023-02-28T08:49:00.858Z,73.17
2023-02-28T08:51:29.130Z,73.17
2023-02-28T08:54:00.199Z,72.60
2023-02-28T08:56:30.048Z,72.48
2023-02-28T08:58:58.712Z,72.22
2023-02-28T09:01:29.351Z,72.22
2023-02-28T09:03:58.056Z,72.06
2023-02-28T09:06:28.575Z,71.59
2023-02-28T09:08:59.300Z,71.42
2023-02-28T09:11:26.983Z,71.44
2023-02-28T09:13:57.291Z,71.33
2023-02-28T09:16:24.904Z,70.57
2023-02-28T09:18:52.604Z,69.59
2023-02-28T09:21:21.281Z,69.18
2023-02-28T09:23:50.400Z,68.54
2023-02-28T09:26:20.258Z,67.29
2023-02-28T09:28:48.082Z,66.53
2023-02-28T09:31:21.909Z,65.36
2023-02-28T09:33:49.924Z,65.48
2023-02-28T09:36:17.687Z,64.79
2023-02-28T09:38:48.121Z,64.06
2023-02-28T09:41:18.335Z,63.86
2023-02-28T09:43:48.352Z,63.52
2023-02-28T09:46:29.369Z,64.09
2023-02-28T09:48:57.841Z,64.13
2023-02-28T09:51:32.787Z,62.84
2023-02-28T09:54:02.276Z,62.61
2023-02-28T09:56:34.043Z,61.80
2023-02-28T09:59:04.869Z,61.98
2023-02-28T10:01:39.325Z,61.57
2023-02-28T10:04:11.368Z,61.72
2023-02-28T10:06:43.096Z,60.99
2023-02-28T10:09:15.147Z,60.37
2023-02-28T10:11:43.691Z,60.73
2023-02-28T10:14:15.312Z,59.92
2023-02-28T10:16:48.395Z,58.87
2023-02-28T10:19:18.563Z,58.90
2023-02-28T10:21:50.174Z,59.10
2023-02-28T10:24:23.031Z,58.15
2023-02-28T10:26:52.357Z,57.68
2023-02-28T10:29:20.063Z,57.57
2023-02-28T10:31:49.587Z,56.90
2023-02-28T10:34:17.345Z,57.79
2023-02-28T10:36:45.792Z,58.26
2023-02-28T10:39:39.081Z,58.35
2023-02-28T10:42:07.636Z,58.27
2023-02-28T10:44:35.403Z,58.77
2023-02-28T10:47:04.582Z,58.97
2023-02-28T10:49:32.275Z,59.35
2023-02-28T10:52:01.491Z,59.00
2023-02-28T10:54:34.766Z,59.21
2023-02-28T10:57:11.172Z,59.01
2023-02-28T10:59:38.782Z,59.16
2023-02-28T11:05:05.293Z,59.12
2023-02-28T11:07:41.449Z,59.45
2023-02-28T11:10:21.295Z,58.70
2023-02-28T11:12:53.123Z,58.84
2023-02-28T11:15:24.524Z,58.37
2023-02-28T11:17:57.845Z,58.17
2023-02-28T11:20:27.640Z,58.36
2023-02-28T11:22:56.046Z,58.86
2023-02-28T11:25:25.395Z,57.99
2023-02-28T11:27:54.433Z,57.56
2023-02-28T11:30:30.944Z,57.22
2023-02-28T11:33:00.930Z,56.82
2023-02-28T11:35:31.841Z,56.58
2023-02-28T11:38:00.334Z,55.63
2023-02-28T11:40:36.132Z,55.78
2023-02-28T11:43:09.344Z,55.07
2023-02-28T11:45:47.914Z,55.93
2023-02-28T11:48:23.453Z,56.63
2023-02-28T11:50:59.513Z,55.93
2023-02-28T11:53:41.786Z,56.06
2023-02-28T11:56:13.335Z,56.31
2023-02-28T11:58:48.943Z,56.34
2023-02-28T12:01:40.066Z,55.71
2023-02-28T12:04:19.704Z,54.89
2023-02-28T12:06:52.823Z,55.45
2023-02-28T12:09:34.633Z,54.80
2023-02-28T12:12:08.010Z,53.67
2023-02-28T12:14:52.083Z,53.95
2023-02-28T12:17:28.381Z,53.44
2023-02-28T12:20:04.660Z,53.05
2023-02-28T12:22:33.732Z,53.38
2023-02-28T12:25:37.003Z,52.89
2023-02-28T12:28:04.844Z,53.22
2023-02-28T12:30:34.819Z,52.43
2023-02-28T12:33:06.192Z,53.34
2023-02-28T12:35:37.826Z,52.80
2023-02-28T12:38:08.174Z,53.01
2023-02-28T12:40:45.126Z,52.42
2023-02-28T12:43:15.850Z,51.98
2023-02-28T12:45:46.621Z,52.10
2023-02-28T12:48:17.631Z,52.04
2023-02-28T12:50:46.625Z,52.44
2023-02-28T12:53:19.697Z,52.25
2023-02-28T12:55:51.712Z,51.92
2023-02-28T12:58:24.594Z,51.94
2023-02-28T13:01:08.811Z,51.68
2023-02-28T13:03:55.097Z,52.81
2023-02-28T13:06:34.872Z,52.38
2023-02-28T13:09:07.950Z,52.73
2023-02-28T13:11:41.673Z,52.60
2023-02-28T13:14:31.357Z,52.64
2023-02-28T13:17:02.333Z,51.85
2023-02-28T13:19:31.413Z,51.27
2023-02-28T13:22:01.233Z,52.09
2023-02-28T13:24:41.532Z,52.25
2023-02-28T13:27:37.638Z,52.17
2023-02-28T13:30:38.487Z,52.51
2023-02-28T13:33:27.678Z,51.87
2023-02-28T13:36:27.525Z,52.21
2023-02-28T13:39:00.970Z,51.95
2023-02-28T13:41:48.331Z,52.14
2023-02-28T13:44:23.983Z,52.09
2023-02-28T13:47:21.177Z,52.11
2023-02-28T13:49:48.752Z,52.07
2023-02-28T13:52:20.249Z,52.28
2023-02-28T13:55:05.975Z,52.78
2023-02-28T13:57:46.017Z,52.12
2023-02-28T14:00:25.672Z,52.39
2023-02-28T14:03:19.543Z,52.19
2023-02-28T14:05:47.500Z,52.78
2023-02-28T14:08:18.770Z,52.52
2023-02-28T14:10:49.379Z,52.14
2023-02-28T14:13:45.848Z,52.78
2023-02-28T14:16:15.891Z,51.63
2023-02-28T14:18:44.968Z,51.64
2023-02-28T14:21:17.768Z,52.67
2023-02-28T14:24:05.884Z,52.18
2023-02-28T14:26:46.397Z,52.60
2023-02-28T14:29:28.794Z,52.77
2023-02-28T14:32:00.742Z,53.67
2023-02-28T14:34:37.368Z,52.85
2023-02-28T14:37:05.745Z,53.26
2023-02-28T14:39:33.764Z,53.35
2023-02-28T14:42:05.710Z,52.51
2023-02-28T14:44:33.755Z,53.11
2023-02-28T14:47:05.364Z,52.96
2023-02-28T14:49:34.735Z,53.12
2023-02-28T14:52:10.542Z,53.64
2023-02-28T14:54:38.681Z,53.92
2023-02-28T14:57:07.794Z,53.93
2023-02-28T14:59:37.938Z,53.22
2023-02-28T15:02:20.315Z,53.53
2023-02-28T15:04:55.782Z,53.53
2023-02-28T15:07:29.215Z,53.76
2023-02-28T15:10:15.830Z,53.99
2023-02-28T15:12:51.038Z,54.59
2023-02-28T15:15:19.041Z,54.85
2023-02-28T15:17:48.235Z,54.74
2023-02-28T15:20:17.340Z,54.64
2023-02-28T15:22:45.468Z,54.67
2023-02-28T15:25:16.348Z,54.72
2023-02-28T15:27:49.390Z,54.75
2023-02-28T15:30:19.666Z,54.84
2023-02-28T15:32:47.496Z,55.22
2023-02-28T15:35:28.252Z,55.19
2023-02-28T15:37:57.691Z,54.78
2023-02-28T15:40:28.548Z,55.15
2023-02-28T15:43:07.546Z,54.98
2023-02-28T15:45:39.472Z,54.81
2023-02-28T15:48:14.282Z,55.10
2023-02-28T15:50:42.557Z,55.38
2023-02-28T15:53:15.459Z,55.06
2023-02-28T15:55:43.325Z,55.61
2023-02-28T15:58:14.429Z,55.89
2023-02-28T16:00:46.490Z,55.83
2023-02-28T16:03:37.745Z,55.83
2023-02-28T16:06:34.584Z,56.41
2023-02-28T16:09:02.301Z,56.34
2023-02-28T16:11:30.355Z,56.56
2023-02-28T16:13:59.743Z,56.91
2023-02-28T16:16:28.138Z,57.14
2023-02-28T16:18:56.033Z,57.15
2023-02-28T16:21:23.700Z,57.63
2023-02-28T16:23:51.302Z,57.80
2023-02-28T16:26:23.550Z,58.13
2023-02-28T16:28:51.509Z,57.68
2023-02-28T16:31:20.617Z,57.91
2023-02-28T16:33:48.587Z,58.37
2023-02-28T16:36:18.594Z,58.46
2023-02-28T16:38:46.335Z,58.92
2023-02-28T16:41:19.854Z,58.54
2023-02-28T16:43:49.603Z,58.85
2023-02-28T16:46:18.025Z,59.00
2023-02-28T16:48:48.880Z,59.17
2023-02-28T16:51:17.753Z,59.52
2023-02-28T16:53:45.967Z,59.44
2023-02-28T16:56:17.967Z,59.80
2023-02-28T16:58:45.715Z,60.27
2023-02-28T17:01:13.526Z,60.41
2023-02-28T17:03:41.505Z,60.44
2023-02-28T17:06:19.420Z,60.85
2023-02-28T17:08:47.096Z,60.90
2023-02-28T17:11:14.725Z,61.27
2023-02-28T17:13:42.335Z,61.39
2023-02-28T17:16:17.086Z,61.83
2023-02-28T17:18:44.693Z,61.98
2023-02-28T17:21:16.272Z,62.39
2023-02-28T17:23:43.865Z,62.39
2023-02-28T17:26:15.712Z,62.66
2023-02-28T17:28:43.347Z,63.12
2023-02-28T17:31:11.354Z,63.02
2023-02-28T17:33:39.108Z,63.51
2023-02-28T17:36:07.795Z,63.55
2023-02-28T17:38:36.819Z,63.38
2023-02-28T17:41:04.395Z,63.71
2023-02-28T17:43:31.988Z,63.78
2023-02-28T17:45:59.812Z,63.64
2023-02-28T17:48:27.765Z,63.96
2023-02-28T17:50:58.330Z,64.17
2023-02-28T17:53:28.023Z,64.15
2023-02-28T17:55:57.077Z,64.48
2023-02-28T17:58:24.759Z,64.50
2023-02-28T18:00:55.366Z,64.52
2023-02-28T18:03:23.074Z,64.54
2023-02-28T18:05:50.883Z,64.80
2023-02-28T18:08:19.125Z,64.97
2023-02-28T18:10:47.228Z,64.84
2023-02-28T18:13:16.224Z,65.00
2023-02-28T18:15:43.961Z,65.09
2023-02-28T18:18:11.707Z,65.45
2023-02-28T18:20:39.321Z,65.48
2023-02-28T18:23:07.196Z,65.47
2023-02-28T18:25:34.861Z,65.61
2023-02-28T18:28:02.609Z,65.88
2023-02-28T18:30:34.082Z,65.61
2023-02-28T18:33:02.882Z,65.91
2023-02-28T18:35:37.330Z,66.12
2023-02-28T18:38:08.085Z,66.09
2023-02-28T18:40:36.281Z,66.18
2023-02-28T18:43:04.504Z,66.45
2023-02-28T18:45:36.968Z,66.77
2023-02-28T18:48:05.085Z,66.88
2023-02-28T18:50:32.919Z,67.06
2023-02-28T18:53:02.774Z,66.89
2023-02-28T18:55:30.436Z,66.91
2023-02-28T18:57:58.032Z,67.45
2023-02-28T19:00:28.849Z,67.35
2023-02-28T19:02:58.249Z,67.37
2023-02-28T19:05:27.861Z,67.54
2023-02-28T19:07:55.669Z,67.83
2023-02-28T19:10:23.357Z,68.03
2023-02-28T19:12:50.947Z,68.02
2023-02-28T19:15:18.758Z,68.21
2023-02-28T19:17:46.624Z,68.41
2023-02-28T19:20:16.507Z,68.58
2023-02-28T19:22:44.502Z,68.26
2023-02-28T19:25:12.385Z,69.12
2023-02-28T19:27:40.022Z,69.03
2023-02-28T19:30:09.477Z,68.52
2023-02-28T19:32:37.193Z,68.31
2023-02-28T19:35:05.362Z,68.18
2023-02-28T19:37:34.318Z,68.47
2023-02-28T19:40:02.375Z,68.48
2023-02-28T19:42:33.065Z,68.65
2023-02-28T19:45:00.775Z,68.68
2023-02-28T19:47:29.003Z,68.73
2023-02-28T19:49:56.659Z,68.90
2023-02-28T19:52:24.959Z,69.22
2023-02-28T19:54:53.964Z,69.40
2023-02-28T19:57:21.557Z,69.60
2023-02-28T19:59:50.486Z,69.61
2023-02-28T20:02:20.191Z,70.08
2023-02-28T20:04:48.544Z,69.95
2023-02-28T20:07:16.211Z,70.00
2023-02-28T20:09:44.685Z,70.56
2023-02-28T20:12:23.545Z,70.38
2023-02-28T20:14:51.626Z,70.89
2023-02-28T20:17:19.262Z,70.88
2023-02-28T20:19:46.958Z,70.62
2023-02-28T20:22:14.752Z,70.85
2023-02-28T20:24:42.481Z,71.34
2023-02-28T20:27:10.474Z,71.29
2023-02-28T20:29:40.225Z,71.43
2023-02-28T20:32:10.413Z,71.80
2023-02-28T20:34:37.987Z,71.77
2023-02-28T20:37:05.596Z,72.53
2023-02-28T20:39:33.148Z,72.44
2023-02-28T20:42:00.687Z,72.26
2023-02-28T20:44:28.307Z,72.67
2023-02-28T20:46:57.274Z,72.61
2023-02-28T20:49:24.835Z,72.69
2023-02-28T20:51:52.388Z,73.03
2023-02-28T20:54:20.186Z,72.76
2023-02-28T20:56:47.808Z,73.20
2023-02-28T20:59:15.367Z,73.33
2023-02-28T21:01:43.719Z,73.34
2023-02-28T21:04:12.669Z,73.29
2023-02-28T21:06:43.059Z,73.67
2023-02-28T21:09:12.724Z,74.10
2023-02-28T21:11:40.918Z,73.96
2023-02-28T21:14:10.183Z,74.20
2023-02-28T21:16:38.357Z,73.97
2023-02-28T21:19:06.010Z,74.28
2023-02-28T21:24:22.762Z,74.53
2023-02-28T21:26:51.810Z,74.37
2023-02-28T21:29:19.408Z,74.75
2023-02-28T21:31:47.028Z,75.05
2023-02-28T21:34:15.237Z,75.23
2023-02-28T21:36:45.450Z,76.59
2023-02-28T21:39:15.597Z,75.46
2023-02-28T21:41:44.589Z,75.72
2023-02-28T21:44:18.414Z,75.57
2023-02-28T21:46:47.070Z,75.86
2023-02-28T21:49:15.538Z,76.17
2023-02-28T21:51:43.616Z,75.89
2023-02-28T21:54:12.090Z,76.24
2023-02-28T21:56:39.841Z,76.69
2023-02-28T21:59:09.587Z,76.15
2023-02-28T22:01:38.867Z,76.61
2023-02-28T22:04:08.058Z,77.34
2023-02-28T22:06:37.224Z,77.49
2023-02-28T22:09:07.585Z,76.90
2023-02-28T22:11:36.507Z,76.92
2023-02-28T22:14:04.121Z,76.87
2023-02-28T22:16:49.562Z,76.78
2023-02-28T22:19:18.286Z,77.10
2023-02-28T22:21:47.328Z,77.57
2023-02-28T22:24:15.661Z,77.59
2023-02-28T22:26:43.292Z,77.29
2023-02-28T22:29:10.895Z,77.74
2023-02-28T22:31:39.895Z,78.21
2023-02-28T22:34:09.544Z,78.41
2023-02-28T22:36:37.853Z,78.06
2023-02-28T22:39:06.038Z,78.26
2023-02-28T22:41:33.737Z,78.40
2023-02-28T22:44:03.543Z,78.55
2023-02-28T22:46:33.269Z,78.43
2023-02-28T22:49:03.279Z,78.43
2023-02-28T22:51:31.299Z,78.83
2023-02-28T22:53:59.070Z,78.80
2023-02-28T22:56:29.429Z,78.54
2023-02-28T22:58:58.954Z,78.95
2023-02-28T23:01:28.687Z,79.21
2023-02-28T23:03:56.450Z,79.17
2023-02-28T23:06:27.959Z,79.46
2023-02-28T23:08:59.170Z,79.57
2023-02-28T23:11:29.085Z,79.52
2023-02-28T23:13:59.661Z,79.29
2023-02-28T23:16:32.241Z,79.17
2023-02-28T23:19:01.164Z,79.70
2023-02-28T23:21:30.233Z,79.80
2023-02-28T23:23:58.099Z,79.96
2023-02-28T23:26:26.038Z,80.02
2023-02-28T23:28:53.584Z,80.46
2023-02-28T23:31:21.338Z,80.24
2023-02-28T23:33:49.385Z,79.94
2023-02-28T23:36:17.856Z,80.11
2023-02-28T23:38:49.661Z,80.20
2023-02-28T23:41:17.817Z,80.59
2023-02-28T23:43:45.659Z,80.52
2023-02-28T23:46:13.928Z,79.87
2023-02-28T23:48:42.057Z,80.43
2023-02-28T23:51:11.300Z,79.82
2023-02-28T23:53:40.106Z,80.26
2023-02-28T23:56:11.988Z,79.83
2023-02-28T23:58:39.534Z,79.58
